Terminal Aerodrome Forecast
Issued by NWS

Home | Current Version | Previous Version | Text Only | Print | Product List | Glossary On
Versions: 1 2 3 4 5 6 7 8 9 10 11 12 13 14 15
000
FTUS42 KTBW 031127
TAFPGD
TAF
KPGD 031127Z 0312/0412 16005KT P6SM SCT020 SCT100
     FM031400 19008KT P6SM SCT030 SCT100
     FM031800 23010G15KT P6SM SCT040 BKN200
     FM040000 26006KT P6SM SCT150 BKN200=

USA.gov is the U.S. government's official web portal to all federal, state and local government web resources and services.